Anna Maria, Florida
Current Conditions -  °F | °C
As of 12:53 PM on Thursday 30 Oct 2014 (Local Time) from KSRQ Reporting Station
Broken Clouds Broken Clouds  
Wind Chill: 82°   Ceiling: 3500
Heat Index: 84°   Visibility: 10mi
Dew Point: 66°   Wind: 8mph
Humidity: 58%   Direction: 240°WSW
Pressure: 29.93"   Gusts: NA
Location:  27.53°N, 82.73°W
Report Text: KSRQ 301653Z 24007KT 10SM BKN035 28/19 A2993 RMK AO2 SLP136 T02780189
Loading
Personal Weather Stations






























Interactive Weather Map
Tropical Storm Tracking
New forecast layout! Learn more

10-Day Weather Forecast

Advertisements
Track Severe Weather on mobile